Time;durP1;ratioP1;P1;durP2;ratioP2;P2;SDS_P1;SDS_P2;PMS_P1;PMS_P2;Temp;Humidity;BMP_temperature;BMP_pressure;BME280_temperature;BME280_humidity;BME280_pressure;Samples;Min_cycle;Max_cycle;Signal;HPM_P1;HPM_P2
2023/07/02 00:01:19;;;;;;;2.07;1.87;;;20.40;99.90;;;;;;5074357;28;20451;-49
2023/07/02 00:03:45;;;;;;;5.10;2.27;;;20.40;99.90;;;;;;5073969;28;20455;-48
2023/07/02 00:06:12;;;;;;;3.23;2.40;;;20.40;99.90;;;;;;5074134;28;20507;-48
2023/07/02 00:08:40;;;;;;;3.03;2.03;;;20.40;99.90;;;;;;5073501;28;20960;-49
2023/07/02 00:11:12;;;;;;;3.13;1.80;;;20.30;99.90;;;;;;5073841;28;20486;-49
2023/07/02 00:13:39;;;;;;;3.00;2.07;;;20.30;99.90;;;;;;5073699;28;20441;-48
2023/07/02 00:16:05;;;;;;;5.80;2.50;;;20.30;99.90;;;;;;5073561;28;20439;-49
2023/07/02 00:18:33;;;;;;;2.00;1.80;;;20.30;99.90;;;;;;5073268;28;20950;-49
2023/07/02 00:21:02;;;;;;;3.20;2.23;;;20.30;99.90;;;;;;5073482;28;20459;-49
2023/07/02 00:23:28;;;;;;;3.83;2.13;;;20.40;99.90;;;;;;5073542;28;20840;-49
2023/07/02 00:25:55;;;;;;;2.50;2.30;;;20.30;99.90;;;;;;5073508;28;20475;-49
2023/07/02 00:28:23;;;;;;;3.07;2.33;;;20.30;99.90;;;;;;5073105;28;20412;-48
2023/07/02 00:30:51;;;;;;;2.70;2.27;;;20.10;99.90;;;;;;5073350;28;20542;-49
2023/07/02 00:33:17;;;;;;;2.40;2.20;;;20.10;99.90;;;;;;5073426;28;20428;-49
2023/07/02 00:35:44;;;;;;;2.90;2.60;;;20.30;99.90;;;;;;5073602;28;20441;-49
2023/07/02 00:38:11;;;;;;;2.50;2.30;;;20.30;99.90;;;;;;5072556;28;20443;-49
2023/07/02 00:40:38;;;;;;;3.87;2.60;;;20.20;99.90;;;;;;5072353;28;20843;-48
2023/07/02 00:43:04;;;;;;;3.00;2.50;;;20.20;99.90;;;;;;5054319;28;20448;-49
2023/07/02 00:45:32;;;;;;;2.70;2.50;;;20.20;99.90;;;;;;5054104;28;20470;-48
2023/07/02 00:47:59;;;;;;;4.60;2.47;;;20.20;99.90;;;;;;5054388;28;20454;-48
2023/07/02 00:50:26;;;;;;;3.10;2.77;;;20.20;99.90;;;;;;5054253;28;20518;-48
2023/07/02 00:52:54;;;;;;;5.17;2.60;;;20.20;99.90;;;;;;5072237;28;20495;-48
2023/07/02 00:55:21;;;;;;;2.70;2.50;;;20.10;99.90;;;;;;5072234;28;20435;-49
2023/07/02 00:57:48;;;;;;;3.63;2.77;;;20.00;99.90;;;;;;5072210;28;20430;-48
2023/07/02 01:00:15;;;;;;;3.60;2.90;;;20.40;99.90;;;;;;5071678;28;20481;-49
2023/07/02 01:02:44;;;;;;;3.40;3.10;;;20.10;99.90;;;;;;5072005;28;20499;-48
2023/07/02 01:05:15;;;;;;;3.77;3.00;;;20.10;99.90;;;;;;5071859;28;20466;-48
2023/07/02 01:07:42;;;;;;;4.20;3.30;;;20.10;99.90;;;;;;5053816;28;20439;-49
2023/07/02 01:10:09;;;;;;;3.40;3.10;;;20.00;99.90;;;;;;5053403;28;21099;-50
2023/07/02 01:12:37;;;;;;;3.60;3.30;;;20.00;99.90;;;;;;5071702;28;20431;-48
2023/07/02 01:15:05;;;;;;;3.90;3.57;;;20.00;99.90;;;;;;5072121;28;20435;-49
2023/07/02 01:17:39;;;;;;;4.47;4.07;;;20.00;99.90;;;;;;5072897;28;20435;-49
2023/07/02 01:20:09;;;;;;;5.30;4.33;;;20.00;99.90;;;;;;5053479;28;20476;-48
2023/07/02 01:22:37;;;;;;;4.70;4.20;;;20.10;99.90;;;;;;5053674;28;20453;-49
2023/07/02 01:25:04;;;;;;;6.90;4.40;;;19.90;99.90;;;;;;5071585;28;20484;-49
2023/07/02 01:27:31;;;;;;;6.30;3.80;;;20.00;99.90;;;;;;5071556;28;20801;-47
2023/07/02 01:29:57;;;;;;;6.13;4.40;;;19.90;99.90;;;;;;5071136;28;20451;-48
2023/07/02 01:32:24;;;;;;;6.47;4.60;;;19.60;99.90;;;;;;5071466;28;20442;-48
2023/07/02 01:34:53;;;;;;;4.30;3.90;;;19.80;99.90;;;;;;5053434;28;20477;-49
2023/07/02 01:37:21;;;;;;;4.97;4.47;;;19.80;99.90;;;;;;5071227;28;20441;-48
2023/07/02 01:41:52;;;;;;;5.53;4.50;;;19.80;99.90;;;;;;5089440;28;20556;-49
2023/07/02 01:44:19;;;;;;;5.13;4.50;;;19.90;99.90;;;;;;5088374;28;20524;-49
2023/07/02 01:46:48;;;;;;;6.97;4.53;;;19.60;99.90;;;;;;5089488;28;20430;-48
2023/07/02 01:49:15;;;;;;;5.57;5.07;;;19.60;99.90;;;;;;5088902;28;20528;-49
2023/07/02 01:51:45;;;;;;;8.17;5.00;;;19.60;99.90;;;;;;5088063;28;20437;-48
2023/07/02 01:54:11;;;;;;;4.97;4.57;;;19.70;99.90;;;;;;5092084;22;20498;-50
2023/07/02 01:56:38;;;;;;;7.90;5.63;;;19.50;99.90;;;;;;5048679;28;20442;-48
2023/07/02 01:59:06;;;;;;;5.73;5.00;;;19.60;99.90;;;;;;5046882;28;20454;-50
2023/07/02 02:01:32;;;;;;;6.27;5.67;;;19.60;99.90;;;;;;5047133;28;20564;-49
2023/07/02 02:03:59;;;;;;;6.33;5.50;;;19.50;99.90;;;;;;5048497;28;20462;-49
2023/07/02 02:06:26;;;;;;;5.73;5.23;;;19.50;99.90;;;;;;5048561;28;20427;-49
2023/07/02 02:08:52;;;;;;;5.93;5.43;;;19.50;99.90;;;;;;5048221;28;20438;-49
2023/07/02 02:11:19;;;;;;;6.97;6.23;;;19.40;99.90;;;;;;5047071;28;20474;-49
2023/07/02 02:13:45;;;;;;;7.43;6.70;;;19.40;99.90;;;;;;5046917;28;20505;-49
2023/07/02 02:16:14;;;;;;;6.57;5.97;;;19.40;99.90;;;;;;5046977;28;20542;-49
2023/07/02 02:18:40;;;;;;;8.10;7.40;;;19.40;99.90;;;;;;5047873;28;20428;-49
2023/07/02 02:21:07;;;;;;;8.73;6.70;;;19.40;99.90;;;;;;5046792;28;20475;-49
2023/07/02 02:23:34;;;;;;;7.43;6.83;;;19.30;99.90;;;;;;5047854;28;21008;-49
2023/07/02 02:26:00;;;;;;;9.27;8.27;;;19.30;99.90;;;;;;5046761;28;20423;-49
2023/07/02 02:28:27;;;;;;;6.77;6.27;;;19.30;99.90;;;;;;5047795;28;20443;-49
2023/07/02 02:30:54;;;;;;;17.80;6.60;;;19.30;99.90;;;;;;5046710;28;20549;-49
2023/07/02 02:33:22;;;;;;;7.77;6.57;;;19.30;99.90;;;;;;5048080;28;20458;-49
2023/07/02 02:35:50;;;;;;;7.03;6.43;;;19.30;99.90;;;;;;5046553;28;21035;-49
2023/07/02 02:38:16;;;;;;;6.90;6.07;;;19.30;99.90;;;;;;5047736;28;20798;-49
2023/07/02 02:40:43;;;;;;;6.43;5.80;;;19.30;99.90;;;;;;5046498;28;20486;-49
2023/07/02 02:43:16;;;;;;;6.20;5.60;;;19.40;99.90;;;;;;5046584;28;20558;-48
2023/07/02 02:45:43;;;;;;;6.43;5.87;;;19.20;99.90;;;;;;5046695;28;20515;-49
2023/07/02 02:48:11;;;;;;;8.57;6.70;;;19.20;99.90;;;;;;5046067;28;20584;-48
2023/07/02 02:50:41;;;;;;;6.13;5.53;;;19.10;99.90;;;;;;5046753;28;20533;-48
2023/07/02 02:53:08;;;;;;;5.80;5.30;;;19.10;99.90;;;;;;5034957;28;20446;-48
2023/07/02 02:55:35;;;;;;;6.03;5.53;;;19.20;99.90;;;;;;5033356;28;20455;-48
2023/07/02 02:58:01;;;;;;;6.40;5.20;;;19.30;99.90;;;;;;5033395;28;20549;-48
2023/07/02 03:00:28;;;;;;;7.60;5.20;;;19.10;99.90;;;;;;5032759;28;20984;-48
2023/07/02 03:02:55;;;;;;;8.60;5.07;;;19.10;99.90;;;;;;5033179;28;20449;-48
2023/07/02 03:05:22;;;;;;;6.53;5.33;;;19.10;99.90;;;;;;5034631;28;20486;-48
2023/07/02 03:07:51;;;;;;;7.70;5.63;;;19.10;99.90;;;;;;5034519;28;20430;-49
2023/07/02 03:10:17;;;;;;;6.60;5.07;;;19.10;99.90;;;;;;5032951;28;20451;-48
2023/07/02 03:12:44;;;;;;;6.83;5.80;;;19.20;99.90;;;;;;5032775;28;20459;-48
2023/07/02 03:15:11;;;;;;;6.63;6.00;;;19.00;99.90;;;;;;5033872;28;20470;-49
2023/07/02 03:17:38;;;;;;;6.10;5.60;;;19.20;99.90;;;;;;5032640;28;20461;-48
2023/07/02 03:20:07;;;;;;;6.23;5.20;;;19.20;99.90;;;;;;5033465;28;20447;-49
2023/07/02 03:22:34;;;;;;;5.67;5.17;;;19.20;99.90;;;;;;5033904;28;20811;-49
2023/07/02 03:25:02;;;;;;;6.80;5.10;;;19.30;99.90;;;;;;5033799;28;20550;-49
2023/07/02 03:27:29;;;;;;;6.80;4.83;;;19.20;99.90;;;;;;5033967;28;20409;-49
2023/07/02 03:29:55;;;;;;;5.20;4.67;;;19.10;99.90;;;;;;5033248;28;20950;-49
2023/07/02 03:32:22;;;;;;;5.73;4.83;;;19.20;99.90;;;;;;5033719;28;20435;-48
2023/07/02 03:34:49;;;;;;;6.10;5.00;;;19.20;99.90;;;;;;5033530;28;20455;-49
2023/07/02 03:37:15;;;;;;;5.40;4.70;;;19.20;99.90;;;;;;5033554;28;20432;-48
2023/07/02 03:39:42;;;;;;;8.43;4.80;;;19.20;99.90;;;;;;5033575;28;20435;-48
2023/07/02 03:42:10;;;;;;;6.83;4.43;;;19.10;99.90;;;;;;5033457;28;20519;-48
2023/07/02 03:44:36;;;;;;;5.10;4.30;;;19.20;99.90;;;;;;5033258;28;20988;-48
2023/07/02 03:47:03;;;;;;;6.60;4.40;;;19.10;99.90;;;;;;5033352;28;20434;-49
2023/07/02 03:49:30;;;;;;;4.50;4.00;;;19.10;99.90;;;;;;5033080;28;20439;-49
2023/07/02 03:51:56;;;;;;;6.40;4.13;;;19.10;99.90;;;;;;5033371;28;20445;-49
2023/07/02 03:54:23;;;;;;;5.70;4.07;;;19.10;99.90;;;;;;5033354;28;20474;-49
2023/07/02 03:56:50;;;;;;;4.87;4.50;;;19.10;99.90;;;;;;5033408;28;20806;-50
2023/07/02 03:59:17;;;;;;;5.17;4.30;;;19.10;99.90;;;;;;5032710;28;20435;-49
2023/07/02 04:01:44;;;;;;;4.30;3.90;;;19.10;99.90;;;;;;5031476;28;20487;-49
2023/07/02 04:04:11;;;;;;;4.50;4.00;;;19.20;99.90;;;;;;5032075;28;20454;-49
2023/07/02 04:06:38;;;;;;;4.60;3.97;;;19.10;99.90;;;;;;5033075;28;20486;-49
2023/07/02 04:09:05;;;;;;;5.60;4.43;;;19.10;99.90;;;;;;5032784;28;20534;-49
2023/07/02 04:11:32;;;;;;;6.23;3.97;;;19.10;99.90;;;;;;5032871;28;20435;-48
2023/07/02 04:13:58;;;;;;;4.17;3.73;;;19.10;99.90;;;;;;5032779;28;20448;-49
2023/07/02 04:16:26;;;;;;;4.83;4.33;;;19.20;99.90;;;;;;5031413;28;20451;-48
2023/07/02 04:18:53;;;;;;;6.23;4.37;;;19.60;99.90;;;;;;5032687;28;20434;-48
2023/07/02 04:21:20;;;;;;;4.13;3.70;;;19.20;99.90;;;;;;5032647;28;20546;-48
2023/07/02 04:23:46;;;;;;;9.40;4.20;;;19.20;99.90;;;;;;5032602;28;20455;-49
2023/07/02 04:26:13;;;;;;;5.57;4.30;;;19.30;99.90;;;;;;5032571;28;20444;-47
2023/07/02 04:28:39;;;;;;;4.07;3.60;;;19.30;99.90;;;;;;5032260;28;20432;-48
2023/07/02 04:31:06;;;;;;;5.63;3.43;;;19.40;99.90;;;;;;5032427;28;20436;-49
2023/07/02 04:33:35;;;;;;;5.10;4.23;;;19.40;99.90;;;;;;5032486;28;20459;-49
2023/07/02 04:36:02;;;;;;;4.03;3.67;;;19.40;99.90;;;;;;5032599;28;20451;-49
2023/07/02 04:38:29;;;;;;;4.20;3.40;;;19.40;99.90;;;;;;5032122;28;20455;-49
2023/07/02 04:40:57;;;;;;;4.70;3.63;;;19.50;99.90;;;;;;5032351;28;20824;-48
2023/07/02 04:43:24;;;;;;;4.43;3.80;;;19.60;99.90;;;;;;5032436;28;20952;-48
2023/07/02 04:45:50;;;;;;;4.83;3.57;;;19.70;99.90;;;;;;5032429;28;20449;-47
2023/07/02 04:48:17;;;;;;;4.10;3.13;;;19.80;99.90;;;;;;5031976;28;20437;-49
2023/07/02 04:50:45;;;;;;;3.40;3.00;;;19.90;99.90;;;;;;5032454;28;20795;-49
2023/07/02 04:53:11;;;;;;;5.90;3.87;;;19.90;99.90;;;;;;5030770;28;20794;-49
2023/07/02 04:55:38;;;;;;;4.77;3.20;;;20.00;99.90;;;;;;5032173;28;20451;-49
2023/07/02 04:58:04;;;;;;;5.70;3.60;;;20.00;99.90;;;;;;5031876;28;20433;-48
2023/07/02 05:00:31;;;;;;;4.67;3.47;;;20.00;99.90;;;;;;5031970;28;20440;-48
2023/07/02 05:02:58;;;;;;;4.90;3.30;;;20.10;99.90;;;;;;5032172;28;20434;-47
2023/07/02 05:05:24;;;;;;;7.30;3.00;;;20.10;99.90;;;;;;5031931;28;20460;-48
2023/07/02 05:07:54;;;;;;;5.30;3.53;;;20.20;99.90;;;;;;5031918;28;20438;-49
2023/07/02 05:10:20;;;;;;;4.90;3.10;;;20.40;99.90;;;;;;5031701;28;20452;-49
2023/07/02 05:12:47;;;;;;;4.87;2.80;;;20.60;99.90;;;;;;5031985;28;20927;-49
2023/07/02 05:15:14;;;;;;;6.17;3.10;;;20.70;99.90;;;;;;5031513;28;20468;-49
2023/07/02 05:17:40;;;;;;;3.07;2.60;;;20.80;99.90;;;;;;5031756;28;20435;-48
2023/07/02 05:20:09;;;;;;;3.00;2.30;;;21.00;99.90;;;;;;5031622;28;20437;-50
2023/07/02 05:22:35;;;;;;;3.23;2.53;;;21.10;99.90;;;;;;5032033;28;20485;-49
2023/07/02 05:25:03;;;;;;;3.77;3.13;;;21.10;99.90;;;;;;5031819;28;20450;-49
2023/07/02 05:27:30;;;;;;;7.67;3.50;;;21.20;99.90;;;;;;5032258;28;20434;-49
2023/07/02 05:29:57;;;;;;;3.83;2.60;;;21.20;99.90;;;;;;5030267;28;20451;-49
2023/07/02 05:32:23;;;;;;;6.53;2.80;;;21.30;99.90;;;;;;5031776;28;20469;-49
2023/07/02 05:34:50;;;;;;;6.43;2.77;;;21.20;99.90;;;;;;5031724;28;20453;-49
2023/07/02 05:37:16;;;;;;;4.00;2.70;;;21.20;99.90;;;;;;5031575;28;20447;-48
2023/07/02 05:39:43;;;;;;;6.20;2.50;;;21.40;99.90;;;;;;5031275;28;20437;-49
2023/07/02 05:42:11;;;;;;;3.50;2.50;;;21.50;99.90;;;;;;5031448;28;20486;-49
2023/07/02 05:44:37;;;;;;;3.83;3.17;;;21.70;99.90;;;;;;5031426;28;20457;-48
2023/07/02 05:47:04;;;;;;;5.50;2.50;;;21.80;99.90;;;;;;5031418;28;20438;-48
2023/07/02 05:49:31;;;;;;;3.70;2.60;;;21.70;99.90;;;;;;5031004;28;20430;-49
2023/07/02 05:51:57;;;;;;;7.07;3.50;;;21.50;99.90;;;;;;5031517;28;20888;-48
2023/07/02 05:54:24;;;;;;;6.73;3.50;;;21.40;99.90;;;;;;5030934;28;20516;-49
2023/07/02 05:56:50;;;;;;;7.13;2.87;;;21.40;99.90;;;;;;5031457;28;20439;-49
2023/07/02 05:59:19;;;;;;;5.17;2.63;;;21.40;99.90;;;;;;5031187;28;20439;-49
2023/07/02 06:01:45;;;;;;;4.30;2.80;;;21.60;99.90;;;;;;5031314;28;20556;-49
2023/07/02 06:04:12;;;;;;;5.13;3.03;;;21.70;99.90;;;;;;5029838;28;20489;-49
2023/07/02 06:06:39;;;;;;;4.07;2.40;;;21.80;99.90;;;;;;5031176;28;20446;-49
2023/07/02 06:09:05;;;;;;;3.57;2.77;;;22.10;99.90;;;;;;5031175;28;20439;-49
2023/07/02 06:11:32;;;;;;;6.27;2.90;;;22.30;99.90;;;;;;5029965;28;20453;-50
2023/07/02 06:13:58;;;;;;;5.80;2.83;;;22.40;99.90;;;;;;5031033;28;20463;-49
2023/07/02 06:16:27;;;;;;;3.60;2.50;;;22.50;99.90;;;;;;5030961;28;20929;-49
2023/07/02 06:18:53;;;;;;;4.30;2.30;;;22.50;99.90;;;;;;5030849;28;20424;-50
2023/07/02 06:21:20;;;;;;;5.73;4.13;;;22.50;99.50;;;;;;5031308;28;20975;-49
2023/07/02 06:23:47;;;;;;;6.07;2.63;;;22.50;99.40;;;;;;5031146;28;20967;-49
2023/07/02 06:26:14;;;;;;;4.50;3.20;;;22.50;99.00;;;;;;5030980;28;20465;-49
2023/07/02 06:28:40;;;;;;;5.03;2.87;;;22.40;98.70;;;;;;5034332;28;20863;-50
2023/07/02 06:31:07;;;;;;;6.90;2.43;;;22.30;98.30;;;;;;5034781;28;20971;-49
2023/07/02 06:33:38;;;;;;;6.83;2.67;;;22.30;98.20;;;;;;5034940;28;20567;-49
2023/07/02 06:36:05;;;;;;;6.47;2.73;;;22.30;98.00;;;;;;5034931;28;20908;-49
2023/07/02 06:38:32;;;;;;;4.80;2.80;;;22.30;98.00;;;;;;5034483;28;20439;-50
2023/07/02 06:40:58;;;;;;;4.00;2.83;;;22.40;97.80;;;;;;5034688;28;20454;-49
2023/07/02 06:43:25;;;;;;;6.47;3.63;;;22.40;97.60;;;;;;5034823;28;20822;-49
2023/07/02 06:45:52;;;;;;;4.60;3.17;;;22.40;97.50;;;;;;5034228;28;20440;-48
2023/07/02 06:48:21;;;;;;;5.00;2.47;;;22.50;97.30;;;;;;5034084;28;20518;-49
2023/07/02 06:50:49;;;;;;;4.17;2.80;;;22.60;96.90;;;;;;5034578;28;20436;-49
2023/07/02 06:53:15;;;;;;;4.80;2.90;;;22.60;96.50;;;;;;5034200;28;20424;-50
2023/07/02 06:55:42;;;;;;;4.00;2.70;;;22.70;96.50;;;;;;5034158;28;20440;-49
2023/07/02 06:58:09;;;;;;;4.90;2.80;;;22.90;96.70;;;;;;5033753;28;20436;-49
2023/07/02 07:00:36;;;;;;;5.90;3.03;;;23.00;96.40;;;;;;5034295;28;20822;-49
2023/07/02 07:03:03;;;;;;;6.00;3.33;;;23.10;96.20;;;;;;5034264;28;20473;-49
2023/07/02 07:05:30;;;;;;;3.90;2.53;;;23.30;95.90;;;;;;5034331;28;20484;-49
2023/07/02 07:07:58;;;;;;;7.57;3.17;;;23.30;95.20;;;;;;5034125;28;20444;-49
2023/07/02 07:10:25;;;;;;;3.63;3.10;;;23.30;95.30;;;;;;5033924;28;20785;-50
2023/07/02 07:12:52;;;;;;;3.90;3.03;;;23.30;95.10;;;;;;5034187;28;20503;-49
2023/07/02 07:15:18;;;;;;;4.70;2.60;;;23.40;95.00;;;;;;5034177;28;20454;-50
2023/07/02 07:17:45;;;;;;;5.13;3.10;;;23.50;94.80;;;;;;5033992;28;20561;-50
2023/07/02 07:20:12;;;;;;;7.67;4.93;;;23.50;94.90;;;;;;5033822;28;20436;-49
2023/07/02 07:22:39;;;;;;;9.30;3.20;;;23.60;94.90;;;;;;5033665;28;20481;-49
2023/07/02 07:25:08;;;;;;;7.20;2.60;;;23.70;94.40;;;;;;5032409;28;20465;-49
2023/07/02 07:27:35;;;;;;;6.47;3.83;;;23.70;94.00;;;;;;5033797;28;20438;-48
2023/07/02 07:30:01;;;;;;;10.10;3.80;;;23.80;93.90;;;;;;5033658;28;20501;-49
2023/07/02 07:32:28;;;;;;;6.50;4.30;;;23.70;93.60;;;;;;5033559;28;20439;-49
2023/07/02 07:34:55;;;;;;;4.27;3.47;;;23.60;93.20;;;;;;5033365;28;20450;-49
2023/07/02 07:37:21;;;;;;;6.33;3.07;;;23.50;93.00;;;;;;5033334;28;20446;-49
2023/07/02 07:39:48;;;;;;;4.93;3.07;;;23.60;93.10;;;;;;5033289;28;20741;-50
2023/07/02 07:42:16;;;;;;;8.23;4.80;;;23.70;92.90;;;;;;5033193;28;20481;-50
2023/07/02 07:44:43;;;;;;;8.40;3.47;;;23.80;92.80;;;;;;5033259;28;20462;-49
2023/07/02 07:47:09;;;;;;;4.80;3.07;;;23.90;92.70;;;;;;5033502;28;20450;-49
2023/07/02 07:49:36;;;;;;;5.40;3.17;;;23.80;92.50;;;;;;5033163;28;21003;-48
2023/07/02 07:52:06;;;;;;;7.40;3.53;;;23.80;92.50;;;;;;5033378;28;20436;-49
2023/07/02 07:54:34;;;;;;;5.03;3.43;;;23.70;92.50;;;;;;5065365;22;21036;-48
2023/07/02 07:57:01;;;;;;;4.40;3.43;;;23.50;92.00;;;;;;5073227;28;20476;-48
2023/07/02 07:59:29;;;;;;;5.23;4.10;;;23.30;92.10;;;;;;5073030;28;20924;-49
2023/07/02 08:01:55;;;;;;;4.87;2.87;;;23.20;92.30;;;;;;5073312;28;20480;-48
2023/07/02 08:04:22;;;;;;;3.23;2.87;;;23.10;92.40;;;;;;5055150;28;20561;-47
2023/07/02 08:06:48;;;;;;;4.93;3.00;;;23.00;92.70;;;;;;5073410;28;20444;-48
2023/07/02 08:09:15;;;;;;;5.60;3.10;;;22.90;92.80;;;;;;5072725;28;20802;-50
2023/07/02 08:11:42;;;;;;;6.53;3.03;;;22.80;92.90;;;;;;5054793;28;20451;-48
2023/07/02 08:14:08;;;;;;;5.80;3.00;;;22.80;93.00;;;;;;5073146;28;20452;-48
2023/07/02 08:16:36;;;;;;;9.20;3.57;;;22.80;93.10;;;;;;5072539;28;20432;-48
2023/07/02 08:19:03;;;;;;;5.63;2.63;;;22.80;93.30;;;;;;5072457;28;20430;-48
2023/07/02 08:21:30;;;;;;;6.20;3.47;;;22.70;93.50;;;;;;5072731;28;20931;-49
2023/07/02 08:23:57;;;;;;;6.13;3.60;;;22.70;93.50;;;;;;5072610;28;20827;-48
2023/07/02 08:26:24;;;;;;;6.17;3.20;;;22.70;93.70;;;;;;5054755;28;20463;-48
2023/07/02 08:28:50;;;;;;;5.37;3.00;;;22.70;93.80;;;;;;5072298;28;20428;-48
2023/07/02 08:31:17;;;;;;;6.17;4.10;;;22.70;93.90;;;;;;5073025;28;20787;-48
2023/07/02 08:33:45;;;;;;;8.17;3.77;;;22.70;93.80;;;;;;5072469;28;20794;-50
2023/07/02 08:36:13;;;;;;;7.53;3.60;;;22.70;93.50;;;;;;5072386;28;20534;-48
2023/07/02 08:38:41;;;;;;;5.20;3.30;;;22.80;93.50;;;;;;5072137;28;20521;-49
2023/07/02 08:41:08;;;;;;;8.33;3.67;;;22.80;93.10;;;;;;5072106;28;20969;-49
2023/07/02 08:43:37;;;;;;;7.33;3.10;;;22.80;92.80;;;;;;5070743;28;20580;-49
2023/07/02 08:46:03;;;;;;;4.50;3.30;;;22.80;92.60;;;;;;5072237;28;20434;-48
2023/07/02 08:48:30;;;;;;;7.40;3.30;;;23.00;92.70;;;;;;5071849;28;20495;-48
2023/07/02 08:50:58;;;;;;;3.80;3.10;;;22.90;92.50;;;;;;5071555;28;20430;-47
2023/07/02 08:53:29;;;;;;;5.37;3.60;;;23.10;92.50;;;;;;5072121;28;20433;-49
2023/07/02 08:55:56;;;;;;;6.50;3.63;;;23.00;92.40;;;;;;5072168;28;20447;-48
2023/07/02 08:58:22;;;;;;;5.60;3.37;;;23.00;92.10;;;;;;5053884;28;20784;-48
2023/07/02 09:01:04;;;;;;;13.13;4.13;;;23.10;92.00;;;;;;5053937;28;20453;-48
2023/07/02 09:03:31;;;;;;;6.00;4.83;;;23.20;91.40;;;;;;5072047;28;20508;-47
2023/07/02 09:05:59;;;;;;;6.47;3.93;;;23.10;91.00;;;;;;5072029;28;20424;-48
2023/07/02 09:08:26;;;;;;;6.77;4.47;;;23.20;90.70;;;;;;5071690;28;20932;-48
2023/07/02 09:10:53;;;;;;;6.40;4.07;;;23.30;90.50;;;;;;5072141;28;20436;-49
2023/07/02 09:13:19;;;;;;;5.70;4.03;;;23.40;90.10;;;;;;5054440;28;20955;-48
2023/07/02 09:15:46;;;;;;;5.90;4.23;;;23.50;89.40;;;;;;5071665;28;20431;-49
2023/07/02 09:18:20;;;;;;;6.20;4.30;;;23.50;88.40;;;;;;5071394;28;20436;-49
2023/07/02 09:20:47;;;;;;;6.20;4.07;;;23.80;87.30;;;;;;5071673;28;20436;-50
2023/07/02 09:23:15;;;;;;;7.57;4.43;;;24.00;86.80;;;;;;5071757;28;20832;-48
2023/07/02 09:25:42;;;;;;;6.97;4.70;;;24.10;85.50;;;;;;5071693;28;20484;-49
2023/07/02 09:28:16;;;;;;;5.73;3.97;;;24.30;85.10;;;;;;5071360;28;20816;-48
2023/07/02 09:30:53;;;;;;;15.27;4.70;;;24.30;83.40;;;;;;5071944;28;20473;-48
2023/07/02 09:33:20;;;;;;;6.97;4.97;;;24.40;83.30;;;;;;5071444;28;20432;-47
2023/07/02 09:35:46;;;;;;;11.17;5.00;;;24.30;83.00;;;;;;5053558;28;20518;-49
2023/07/02 09:38:15;;;;;;;6.93;4.90;;;24.20;82.10;;;;;;5071208;28;20909;-49
2023/07/02 09:40:47;;;;;;;8.73;4.70;;;24.10;81.90;;;;;;5071289;28;20453;-48
2023/07/02 09:43:15;;;;;;;9.00;4.97;;;24.00;81.90;;;;;;5071791;28;20538;-49
2023/07/02 09:45:44;;;;;;;8.03;5.23;;;24.10;82.40;;;;;;5071642;28;20980;-48
2023/07/02 09:48:14;;;;;;;9.40;5.90;;;24.10;81.90;;;;;;5071017;28;20438;-48
2023/07/02 09:50:41;;;;;;;9.50;6.17;;;24.10;82.50;;;;;;5071500;28;20493;-48
2023/07/02 09:53:08;;;;;;;7.93;5.47;;;24.40;82.80;;;;;;5053528;28;20453;-48
2023/07/02 09:55:36;;;;;;;12.33;5.03;;;24.10;82.40;;;;;;5071253;28;20465;-48
2023/07/02 09:58:03;;;;;;;7.90;5.43;;;24.10;81.90;;;;;;5071088;28;20871;-50
2023/07/02 10:00:30;;;;;;;7.93;6.10;;;24.10;81.30;;;;;;5071257;28;20955;-47
2023/07/02 10:02:56;;;;;;;10.17;5.97;;;24.20;80.60;;;;;;5073822;28;20480;-49
2023/07/02 10:05:27;;;;;;;8.60;5.50;;;24.20;79.70;;;;;;5075276;28;20448;-48
2023/07/02 10:07:53;;;;;;;10.23;6.10;;;24.10;79.20;;;;;;5075039;28;20441;-48
2023/07/02 10:10:27;;;;;;;14.83;6.13;;;24.10;79.40;;;;;;5075100;28;20435;-47
2023/07/02 10:12:55;;;;;;;9.67;6.00;;;24.00;79.10;;;;;;5075667;28;20444;-48
2023/07/02 10:15:26;;;;;;;12.40;6.87;;;23.90;79.70;;;;;;5075099;28;20449;-48
2023/07/02 10:17:57;;;;;;;9.97;6.50;;;24.00;79.90;;;;;;5075013;28;20507;-47
2023/07/02 10:20:33;;;;;;;11.97;7.30;;;24.10;80.20;;;;;;5074705;28;20429;-48
2023/07/02 10:23:01;;;;;;;10.03;5.93;;;24.10;79.40;;;;;;5075084;28;20578;-49
2023/07/02 10:25:29;;;;;;;9.67;5.77;;;24.10;79.80;;;;;;5074994;28;20884;-48
2023/07/02 10:27:58;;;;;;;15.53;6.60;;;24.30;80.30;;;;;;5075049;28;20441;-49
2023/07/02 10:30:35;;;;;;;10.63;6.23;;;24.50;80.60;;;;;;5075087;28;20453;-48
2023/07/02 10:33:09;;;;;;;13.13;6.57;;;24.60;79.70;;;;;;5074884;28;20429;-48
2023/07/02 10:35:36;;;;;;;8.03;5.97;;;24.60;79.60;;;;;;5074653;28;20495;-48
2023/07/02 10:38:02;;;;;;;10.60;5.73;;;24.60;80.40;;;;;;5074678;28;20445;-48
2023/07/02 10:40:30;;;;;;;12.13;6.70;;;24.70;79.80;;;;;;5074501;28;20872;-48
2023/07/02 10:42:58;;;;;;;12.63;6.37;;;24.70;79.00;;;;;;5074362;28;20504;-48
2023/07/02 10:45:32;;;;;;;9.10;5.80;;;24.80;78.60;;;;;;5074303;28;20464;-47
2023/07/02 10:47:59;;;;;;;17.53;6.83;;;24.80;77.60;;;;;;5074632;28;20437;-49
2023/07/02 10:50:27;;;;;;;19.03;7.33;;;24.80;77.80;;;;;;5074166;28;20548;-48
2023/07/02 10:52:54;;;;;;;12.80;7.87;;;24.80;77.70;;;;;;5056177;28;20445;-48
2023/07/02 10:55:22;;;;;;;10.57;6.30;;;24.80;78.00;;;;;;5073840;28;20472;-48
2023/07/02 10:57:50;;;;;;;12.20;6.60;;;24.90;76.90;;;;;;5074267;28;20452;-48
2023/07/02 11:00:20;;;;;;;12.40;6.50;;;24.90;76.60;;;;;;5074185;28;20433;-49
2023/07/02 11:02:46;;;;;;;13.33;6.10;;;24.90;75.40;;;;;;5074032;28;20472;-48
2023/07/02 11:05:14;;;;;;;11.30;6.67;;;24.90;75.10;;;;;;5056000;28;21093;-48
2023/07/02 11:07:41;;;;;;;13.73;6.83;;;24.80;75.00;;;;;;5074439;28;20509;-48
2023/07/02 11:10:09;;;;;;;23.30;6.27;;;24.70;74.90;;;;;;5056318;28;20811;-48
2023/07/02 11:12:37;;;;;;;13.13;6.20;;;24.70;75.20;;;;;;5056486;28;20449;-47
2023/07/02 11:15:10;;;;;;;11.50;7.27;;;24.70;75.60;;;;;;5073752;28;20454;-49
2023/07/02 11:17:40;;;;;;;14.60;7.70;;;24.40;75.10;;;;;;5074575;28;20447;-48
2023/07/02 11:20:08;;;;;;;10.73;6.53;;;24.30;75.70;;;;;;5073700;28;20880;-49
2023/07/02 11:22:36;;;;;;;9.17;6.40;;;24.10;75.80;;;;;;5073920;28;20525;-48
2023/07/02 11:25:16;;;;;;;11.50;6.70;;;23.90;76.60;;;;;;5074033;28;20457;-49
2023/07/02 11:27:44;;;;;;;12.50;6.27;;;23.80;76.80;;;;;;5074185;28;20434;-49
2023/07/02 11:30:12;;;;;;;9.73;7.03;;;23.60;77.40;;;;;;5073008;28;20444;-48
2023/07/02 11:32:50;;;;;;;14.07;6.90;;;23.60;77.80;;;;;;5073487;28;20605;-49
2023/07/02 11:35:17;;;;;;;10.97;6.77;;;23.60;77.60;;;;;;5073308;28;20459;-49
2023/07/02 11:37:45;;;;;;;11.97;7.00;;;23.60;77.50;;;;;;5075504;28;20453;-50
2023/07/02 11:40:13;;;;;;;15.90;7.60;;;23.70;75.80;;;;;;5072977;28;20457;-49
2023/07/02 11:42:39;;;;;;;13.10;6.60;;;23.70;73.80;;;;;;5073086;28;20441;-50
2023/07/02 11:45:07;;;;;;;16.40;7.37;;;23.90;70.30;;;;;;5073332;28;21176;-49
2023/07/02 11:47:34;;;;;;;14.40;7.60;;;23.90;71.80;;;;;;5073443;28;20441;-49
2023/07/02 11:50:03;;;;;;;11.50;6.53;;;24.00;72.00;;;;;;5072684;28;20446;-49
2023/07/02 11:52:30;;;;;;;12.53;7.07;;;23.90;70.10;;;;;;5073312;28;20438;-50
2023/07/02 11:54:57;;;;;;;11.93;6.60;;;23.80;69.20;;;;;;5072988;28;20462;-51
2023/07/02 11:57:23;;;;;;;14.40;7.20;;;23.80;68.90;;;;;;5072986;28;20449;-50
2023/07/02 11:59:52;;;;;;;11.33;7.20;;;23.90;69.10;;;;;;5072762;28;20453;-50
2023/07/02 12:02:19;;;;;;;12.97;6.87;;;24.00;69.30;;;;;;5073088;28;20510;-49
2023/07/02 12:04:45;;;;;;;10.57;6.67;;;24.20;68.20;;;;;;5072862;28;20485;-49
2023/07/02 12:07:14;;;;;;;13.50;7.47;;;24.40;66.60;;;;;;5073101;28;20945;-49
2023/07/02 12:09:41;;;;;;;11.80;6.70;;;24.50;65.20;;;;;;5072256;28;20969;-48
2023/07/02 12:12:08;;;;;;;11.27;7.20;;;24.60;65.20;;;;;;5073055;28;20437;-49
2023/07/02 12:14:35;;;;;;;12.50;6.93;;;24.70;64.50;;;;;;5072997;28;20476;-49
2023/07/02 12:17:01;;;;;;;12.23;7.03;;;24.70;64.30;;;;;;5072766;28;20463;-49
2023/07/02 12:19:28;;;;;;;14.80;8.17;;;24.60;64.00;;;;;;5072506;28;20793;-49
2023/07/02 12:21:54;;;;;;;12.27;6.63;;;24.70;64.30;;;;;;5072809;28;20934;-49
2023/07/02 12:24:22;;;;;;;11.93;6.73;;;24.70;63.90;;;;;;5071836;28;20491;-50
2023/07/02 12:26:49;;;;;;;13.23;6.37;;;24.80;64.00;;;;;;5072628;28;20545;-49
2023/07/02 12:29:16;;;;;;;13.83;7.53;;;24.80;63.20;;;;;;5072285;28;20448;-49
2023/07/02 12:31:42;;;;;;;15.97;6.70;;;24.80;62.40;;;;;;5072326;28;20437;-50
2023/07/02 12:34:09;;;;;;;11.07;6.27;;;24.90;62.40;;;;;;5072368;28;20533;-49
2023/07/02 12:36:35;;;;;;;16.70;7.60;;;25.00;62.50;;;;;;5072395;28;20429;-50
2023/07/02 12:39:02;;;;;;;8.87;6.50;;;25.00;62.60;;;;;;5072247;28;20815;-49
2023/07/02 12:41:30;;;;;;;10.90;6.20;;;25.10;61.30;;;;;;5072411;28;20425;-49
2023/07/02 12:43:57;;;;;;;10.33;6.67;;;25.10;60.70;;;;;;5072256;28;20508;-50
2023/07/02 12:46:24;;;;;;;14.97;7.73;;;25.20;60.40;;;;;;5072508;28;20449;-49
2023/07/02 12:48:50;;;;;;;12.70;6.10;;;25.10;59.20;;;;;;5071748;28;20434;-49